Newburg, Missouri
Current Conditions -  °F | °C
As of 8:19 AM on Monday 22 Dec 2014 (Local Time) from KVIH Reporting Station
Haze Haze  
Wind Chill: 35°   Ceiling: 400
Heat Index: 42°   Visibility: 3mi
Dew Point: 41°   Wind: 13mph
Humidity: 96%   Direction: 170°S
Pressure: 29.67"   Gusts: NA
Location:  37.91°N, 91.9°W
Report Text: KVIH 221419Z AUTO 17011KT 3SM BR OVC004 06/05 A2967 RMK AO2 T00560050
Loading
Personal Weather Stations






























Interactive Weather Map New forecast layout! Learn more

10-Day Weather Forecast

Advertisements
Track Severe Weather on mobile